logo
Search for airport 
image banner adimage banner adimage banner ad
image banner ad

FAMY - Mazzepa Bay

Located in Mammesbury, South Africa

ICAO - FAMY, IATA -

Data provided by Airmate  

General information

Coordinates: S32°28'20" E28°39'2"
Elevation is 193 feet MSL.
 
View others Airports in Western Cape

Operational data

Special qualification required
Current time UTC:
Current local time:
Weather at : - ( 0 km )
METAR: PAWM 230426Z AUTO 16005KT 7SM -RA FEW006 OVC015 00/M01 A2990 RMK AO2 FZRANO PNO $
View NOTAMs / SUP AIP / TFR affecting this airport [VIEW]
Communications frequencies: [VIEW]

Runways:

RWY identifierQFULength (ft)Width (ft)SurfaceLDA (ft)
08170649SAND
26183°170649SAND

Airport contact information

Address: Mammesbury South Africa

Satellite view of FAMY